createdAt,value
2023-05-19T00:01:17.799Z,50.83
2023-05-19T00:03:56.043Z,50.99
2023-05-19T00:06:27.687Z,51.11
2023-05-19T00:09:01.497Z,51.06
2023-05-19T00:11:31.269Z,51.36
2023-05-19T00:14:02.818Z,51.32
2023-05-19T00:16:33.397Z,51.30
2023-05-19T00:19:03.994Z,51.75
2023-05-19T00:21:34.435Z,51.52
2023-05-19T00:24:06.790Z,51.64
2023-05-19T00:26:36.570Z,51.69
2023-05-19T00:29:07.978Z,51.83
2023-05-19T00:31:37.513Z,51.76
2023-05-19T00:34:07.080Z,52.24
2023-05-19T00:36:36.879Z,52.29
2023-05-19T00:39:08.952Z,52.28
2023-05-19T00:41:38.712Z,52.30
2023-05-19T00:44:09.893Z,52.67
2023-05-19T00:46:39.457Z,52.42
2023-05-19T00:49:09.011Z,52.51
2023-05-19T00:51:38.782Z,52.55
2023-05-19T00:54:11.253Z,52.62
2023-05-19T00:56:40.863Z,52.68
2023-05-19T00:59:10.868Z,52.88
2023-05-19T01:01:40.404Z,53.11
2023-05-19T01:04:11.520Z,53.10
2023-05-19T01:06:41.326Z,53.02
2023-05-19T01:09:13.719Z,53.15
2023-05-19T01:11:43.195Z,53.49
2023-05-19T01:14:12.799Z,53.33
2023-05-19T01:16:47.626Z,53.45
2023-05-19T01:19:33.961Z,53.46
2023-05-19T01:22:23.129Z,53.41
2023-05-19T01:25:27.406Z,54.21
2023-05-19T01:28:23.446Z,53.68
2023-05-19T01:30:58.529Z,53.93
2023-05-19T01:33:31.404Z,54.09
2023-05-19T01:36:03.181Z,53.93
2023-05-19T01:38:33.353Z,54.06
2023-05-19T01:41:03.943Z,54.22
2023-05-19T01:43:34.224Z,54.52
2023-05-19T01:46:06.447Z,54.48
2023-05-19T01:48:36.772Z,54.45
2023-05-19T01:51:06.459Z,54.22
2023-05-19T01:53:36.193Z,54.16
2023-05-19T01:56:06.185Z,54.06
2023-05-19T01:58:43.778Z,54.30
2023-05-19T02:01:24.781Z,54.26
2023-05-19T02:04:09.767Z,54.06
2023-05-19T02:06:44.625Z,54.24
2023-05-19T02:09:19.073Z,55.10
2023-05-19T02:11:55.068Z,54.69
2023-05-19T02:14:32.528Z,54.80
2023-05-19T02:17:07.186Z,55.46
2023-05-19T02:19:41.228Z,55.81
2023-05-19T02:22:11.002Z,55.54
2023-05-19T02:24:41.522Z,55.99
2023-05-19T02:27:11.008Z,55.73
2023-05-19T02:29:40.494Z,55.83
2023-05-19T02:32:13.640Z,55.62
2023-05-19T02:34:45.693Z,55.92
2023-05-19T02:37:15.788Z,55.95
2023-05-19T02:39:46.386Z,56.11
2023-05-19T02:42:17.892Z,56.07
2023-05-19T02:44:47.424Z,55.89
2023-05-19T02:47:19.487Z,56.67
2023-05-19T02:49:49.080Z,56.55
2023-05-19T02:52:18.554Z,56.22
2023-05-19T02:54:48.126Z,56.33
2023-05-19T02:57:17.580Z,56.22
2023-05-19T02:59:47.205Z,56.25
2023-05-19T03:02:19.244Z,56.14
2023-05-19T03:04:48.740Z,56.52
2023-05-19T03:07:18.324Z,57.27
2023-05-19T03:09:47.784Z,57.09
2023-05-19T03:12:17.242Z,56.67
2023-05-19T03:14:47.702Z,57.12
2023-05-19T03:17:19.802Z,57.38
2023-05-19T03:19:49.402Z,57.16
2023-05-19T03:22:21.053Z,56.99
2023-05-19T03:24:51.820Z,57.53
2023-05-19T03:27:21.392Z,57.53
2023-05-19T03:29:50.956Z,57.21
2023-05-19T03:32:23.221Z,57.64
2023-05-19T03:34:53.017Z,58.04
2023-05-19T03:37:22.667Z,58.04
2023-05-19T03:39:52.131Z,58.54
2023-05-19T03:42:21.762Z,57.94
2023-05-19T03:44:51.784Z,58.42
2023-05-19T03:47:24.008Z,58.56
2023-05-19T03:50:05.108Z,58.51
2023-05-19T03:52:55.348Z,58.15
2023-05-19T03:55:30.478Z,58.68
2023-05-19T03:57:59.982Z,58.36
2023-05-19T04:00:32.451Z,58.65
2023-05-19T04:03:04.881Z,58.38
2023-05-19T04:05:34.537Z,58.54
2023-05-19T04:08:04.087Z,58.87
2023-05-19T04:10:33.804Z,58.78
2023-05-19T04:13:03.534Z,58.93
2023-05-19T04:15:33.164Z,59.33
2023-05-19T04:18:05.276Z,59.71
2023-05-19T04:20:35.649Z,59.52
2023-05-19T04:23:06.080Z,59.30
2023-05-19T04:25:36.468Z,58.88
2023-05-19T04:28:06.274Z,58.93
2023-05-19T04:30:37.170Z,59.37
2023-05-19T04:33:09.337Z,59.10
2023-05-19T04:35:39.834Z,59.64
2023-05-19T04:38:12.170Z,59.28
2023-05-19T04:40:43.342Z,59.20
2023-05-19T04:43:13.643Z,59.37
2023-05-19T04:45:44.286Z,59.65
2023-05-19T04:48:17.398Z,59.87
2023-05-19T04:50:48.994Z,60.43
2023-05-19T04:53:18.835Z,59.98
2023-05-19T04:55:48.381Z,59.95
2023-05-19T04:58:20.092Z,59.82
2023-05-19T05:00:50.861Z,59.57
2023-05-19T05:03:23.253Z,59.88
2023-05-19T05:05:53.963Z,60.39
2023-05-19T05:08:24.605Z,59.86
2023-05-19T05:10:56.521Z,60.33
2023-05-19T05:13:27.465Z,59.71
2023-05-19T05:15:58.685Z,60.56
2023-05-19T05:18:31.930Z,60.47
2023-05-19T05:21:03.587Z,60.14
2023-05-19T05:23:33.750Z,60.06
2023-05-19T05:26:10.538Z,60.70
2023-05-19T05:28:40.245Z,60.04
2023-05-19T05:31:09.776Z,60.51
2023-05-19T05:33:42.259Z,60.35
2023-05-19T05:36:12.708Z,60.46
2023-05-19T05:38:42.360Z,60.53
2023-05-19T05:41:12.108Z,60.49
2023-05-19T05:43:41.650Z,60.55
2023-05-19T05:46:11.551Z,60.32
2023-05-19T05:48:44.459Z,59.84
2023-05-19T05:51:15.372Z,59.90
2023-05-19T05:53:47.639Z,59.72
2023-05-19T05:56:19.056Z,59.43
2023-05-19T05:58:53.929Z,59.16
2023-05-19T06:01:24.178Z,59.42
2023-05-19T06:03:56.814Z,59.47
2023-05-19T06:06:27.185Z,59.08
2023-05-19T06:08:57.767Z,59.29
2023-05-19T06:11:28.875Z,59.28
2023-05-19T06:14:00.729Z,59.42
2023-05-19T06:16:48.245Z,59.32
2023-05-19T06:19:21.836Z,59.24
2023-05-19T06:21:51.554Z,59.21
2023-05-19T06:24:21.070Z,59.41
2023-05-19T06:26:51.004Z,59.07
2023-05-19T06:29:21.427Z,59.22
2023-05-19T06:31:52.329Z,59.10
2023-05-19T06:34:24.629Z,59.05
2023-05-19T06:36:54.206Z,59.32
2023-05-19T06:39:25.013Z,59.45
2023-05-19T06:41:54.573Z,58.69
2023-05-19T06:44:46.967Z,58.49
2023-05-19T06:47:18.524Z,59.03
2023-05-19T06:49:55.482Z,58.82
2023-05-19T06:52:28.541Z,59.21
2023-05-19T06:54:58.949Z,59.18
2023-05-19T06:57:28.472Z,58.89
2023-05-19T06:59:59.266Z,58.58
2023-05-19T07:02:29.414Z,58.82
2023-05-19T07:05:04.571Z,59.05
2023-05-19T07:07:34.066Z,58.60
2023-05-19T07:10:04.283Z,58.95
2023-05-19T07:12:35.126Z,58.40
2023-05-19T07:15:04.692Z,58.59
2023-05-19T07:17:34.589Z,58.00
2023-05-19T07:20:10.148Z,58.54
2023-05-19T07:22:40.035Z,58.57
2023-05-19T07:25:11.116Z,58.03
2023-05-19T07:27:41.985Z,57.73
2023-05-19T07:30:12.469Z,58.07
2023-05-19T07:32:42.054Z,57.89
2023-05-19T07:35:14.235Z,58.06
2023-05-19T07:37:43.751Z,57.38
2023-05-19T07:40:13.742Z,57.30
2023-05-19T07:42:44.689Z,57.97
2023-05-19T07:45:14.494Z,57.39
2023-05-19T07:47:44.058Z,56.97
2023-05-19T07:50:16.405Z,57.08
2023-05-19T07:52:45.963Z,56.94
2023-05-19T07:55:15.471Z,56.52
2023-05-19T07:57:44.983Z,56.45
2023-05-19T08:00:15.740Z,55.96
2023-05-19T08:02:45.359Z,55.62
2023-05-19T08:05:17.466Z,55.79
2023-05-19T08:07:47.189Z,56.16
2023-05-19T08:10:16.941Z,55.58
2023-05-19T08:12:46.824Z,55.17
2023-05-19T08:15:16.693Z,54.59
2023-05-19T08:17:46.207Z,54.92
2023-05-19T08:20:18.812Z,55.04
2023-05-19T08:22:48.268Z,54.44
2023-05-19T08:25:19.894Z,54.39
2023-05-19T08:27:49.449Z,53.90
2023-05-19T08:30:18.916Z,53.88
2023-05-19T08:32:48.938Z,54.23
2023-05-19T08:35:21.252Z,53.84
2023-05-19T08:37:50.709Z,53.86
2023-05-19T08:40:21.004Z,54.07
2023-05-19T08:42:50.774Z,53.29
2023-05-19T08:45:20.649Z,53.31
2023-05-19T08:47:50.225Z,53.36
2023-05-19T08:50:27.001Z,53.60
2023-05-19T08:53:04.275Z,53.10
2023-05-19T08:55:38.535Z,53.73
2023-05-19T08:58:08.207Z,53.05
2023-05-19T09:00:38.066Z,53.51
2023-05-19T09:03:18.350Z,52.97
2023-05-19T09:05:55.124Z,52.78
2023-05-19T09:08:24.873Z,53.74
2023-05-19T09:10:54.339Z,53.59
2023-05-19T09:13:23.955Z,52.95
2023-05-19T09:15:55.395Z,51.94
2023-05-19T09:18:26.731Z,52.43
2023-05-19T09:21:02.800Z,52.56
2023-05-19T09:23:34.520Z,52.40
2023-05-19T09:26:07.481Z,52.97
2023-05-19T09:28:38.532Z,52.75
2023-05-19T09:31:09.538Z,52.57
2023-05-19T09:33:41.560Z,52.00
2023-05-19T09:36:14.964Z,51.91
2023-05-19T09:38:44.486Z,50.87
2023-05-19T09:41:17.476Z,50.65
2023-05-19T09:43:57.287Z,51.01
2023-05-19T09:46:30.437Z,51.44
2023-05-19T09:49:00.485Z,51.37
2023-05-19T09:51:32.725Z,51.24
2023-05-19T09:54:02.330Z,51.12
2023-05-19T09:56:36.994Z,50.80
2023-05-19T09:59:09.979Z,50.50
2023-05-19T10:01:41.789Z,49.77
2023-05-19T10:04:11.835Z,49.70
2023-05-19T10:06:44.621Z,49.70
2023-05-19T10:09:14.428Z,49.27
2023-05-19T10:11:44.624Z,48.39
2023-05-19T10:14:14.349Z,48.28
2023-05-19T10:16:44.595Z,48.77
2023-05-19T10:19:15.684Z,47.68
2023-05-19T10:21:47.792Z,48.07
2023-05-19T10:24:17.340Z,48.02
2023-05-19T10:26:49.437Z,46.89
2023-05-19T10:29:22.795Z,47.37
2023-05-19T10:31:55.239Z,47.67
2023-05-19T10:34:40.731Z,48.08
2023-05-19T10:37:20.094Z,48.38
2023-05-19T10:39:53.854Z,48.30
2023-05-19T10:42:35.450Z,48.05
2023-05-19T10:45:13.412Z,46.57
2023-05-19T10:47:43.762Z,46.99
2023-05-19T10:50:13.968Z,46.57
2023-05-19T10:52:46.063Z,45.88
2023-05-19T10:55:17.975Z,44.58
2023-05-19T10:57:57.145Z,45.68
2023-05-19T11:00:34.036Z,43.71
2023-05-19T11:03:16.719Z,44.08
2023-05-19T11:05:50.148Z,44.36
2023-05-19T11:08:35.090Z,42.97
2023-05-19T11:11:16.531Z,44.02
2023-05-19T11:13:50.926Z,43.57
2023-05-19T11:16:31.027Z,43.72
2023-05-19T11:19:02.864Z,42.60
2023-05-19T11:21:47.020Z,42.56
2023-05-19T11:24:46.560Z,41.77
2023-05-19T11:27:31.980Z,42.46
2023-05-19T11:30:05.554Z,42.21
2023-05-19T11:32:39.871Z,42.67
2023-05-19T11:35:11.704Z,43.71
2023-05-19T11:37:42.819Z,43.31
2023-05-19T11:40:19.009Z,42.83
2023-05-19T11:42:48.605Z,42.70
2023-05-19T11:45:19.418Z,43.59
2023-05-19T11:48:01.298Z,41.99
2023-05-19T11:50:32.062Z,41.03
2023-05-19T11:53:04.272Z,40.85
2023-05-19T11:55:38.245Z,38.46
2023-05-19T11:58:08.248Z,40.41
2023-05-19T12:00:40.405Z,40.63
2023-05-19T12:03:12.262Z,41.01
2023-05-19T12:05:46.796Z,40.87
2023-05-19T12:08:18.236Z,40.02
2023-05-19T12:10:51.638Z,40.47
2023-05-19T12:13:23.514Z,41.08
2023-05-19T12:15:53.869Z,40.80
2023-05-19T12:18:24.038Z,40.51
2023-05-19T12:20:53.850Z,39.54
2023-05-19T12:23:24.928Z,39.64
2023-05-19T12:25:57.530Z,40.80
2023-05-19T12:28:28.081Z,39.97
2023-05-19T12:30:59.129Z,40.48
2023-05-19T12:33:30.288Z,39.83
2023-05-19T12:36:00.056Z,40.00
2023-05-19T12:38:31.059Z,39.63
2023-05-19T12:41:06.476Z,40.33
2023-05-19T12:43:37.066Z,40.60
2023-05-19T12:46:12.871Z,41.10
2023-05-19T12:48:46.238Z,40.93
2023-05-19T12:51:20.092Z,40.40
2023-05-19T12:53:50.275Z,40.97
2023-05-19T12:56:24.553Z,40.20
2023-05-19T12:58:57.369Z,40.92
2023-05-19T13:01:28.466Z,40.49
2023-05-19T13:03:58.351Z,39.98
2023-05-19T13:06:28.798Z,39.81
2023-05-19T13:08:58.642Z,39.97
2023-05-19T13:11:30.713Z,40.20
2023-05-19T13:14:00.213Z,39.79
2023-05-19T13:16:30.229Z,40.05
2023-05-19T13:18:59.860Z,38.76
2023-05-19T13:21:29.864Z,39.12
2023-05-19T13:23:59.321Z,39.29
2023-05-19T13:26:31.405Z,39.52
2023-05-19T13:29:00.927Z,39.85
2023-05-19T13:31:34.009Z,42.53
2023-05-19T13:34:03.574Z,40.27
2023-05-19T13:36:33.434Z,38.28
2023-05-19T13:39:03.609Z,38.21
2023-05-19T13:41:35.836Z,37.18
2023-05-19T13:44:06.687Z,36.81
2023-05-19T13:46:44.793Z,35.56
2023-05-19T13:49:16.094Z,36.14
2023-05-19T13:51:46.299Z,36.56
2023-05-19T13:54:15.867Z,36.80
2023-05-19T13:56:48.842Z,36.48
2023-05-19T13:59:18.626Z,35.29
2023-05-19T14:01:48.324Z,35.21
2023-05-19T14:04:20.336Z,35.06
2023-05-19T14:06:49.937Z,35.34
2023-05-19T14:09:19.534Z,35.53
2023-05-19T14:11:52.113Z,35.13
2023-05-19T14:14:21.483Z,34.75
2023-05-19T14:16:51.067Z,36.81
2023-05-19T14:19:20.821Z,36.02
2023-05-19T14:21:50.524Z,34.95
2023-05-19T14:24:20.313Z,34.59
2023-05-19T14:26:53.445Z,34.25
2023-05-19T14:29:22.934Z,34.83
2023-05-19T14:31:52.470Z,34.75
2023-05-19T14:34:22.070Z,34.16
2023-05-19T14:36:51.658Z,34.31
2023-05-19T14:39:21.219Z,34.24
2023-05-19T14:41:53.312Z,33.97
2023-05-19T14:44:22.814Z,34.18
2023-05-19T14:46:52.365Z,33.99
2023-05-19T14:49:21.921Z,34.77
2023-05-19T14:51:51.410Z,34.44
2023-05-19T14:54:20.906Z,35.60
2023-05-19T14:56:52.993Z,35.94
2023-05-19T14:59:22.537Z,35.69
2023-05-19T15:01:52.191Z,35.43
2023-05-19T15:04:21.837Z,34.63
2023-05-19T15:07:05.740Z,34.08
2023-05-19T15:09:38.989Z,33.48
2023-05-19T15:12:11.255Z,32.98
2023-05-19T15:14:40.802Z,33.27
2023-05-19T15:17:10.410Z,33.49
2023-05-19T15:19:41.138Z,33.96
2023-05-19T15:22:10.883Z,34.44
2023-05-19T15:24:41.340Z,34.30
2023-05-19T15:27:13.653Z,34.09
2023-05-19T15:29:43.200Z,34.42
2023-05-19T15:32:12.662Z,34.21
2023-05-19T15:34:42.200Z,34.86
2023-05-19T15:37:11.672Z,34.28
2023-05-19T15:39:41.180Z,35.17
2023-05-19T15:42:13.345Z,35.05
2023-05-19T15:44:42.823Z,35.16
2023-05-19T15:47:12.292Z,35.38
2023-05-19T15:49:41.812Z,35.31
2023-05-19T15:52:11.294Z,35.71
2023-05-19T15:54:41.010Z,34.85
2023-05-19T15:57:13.658Z,35.72
2023-05-19T15:59:43.187Z,36.52
2023-05-19T16:02:12.922Z,36.71
2023-05-19T16:04:42.484Z,37.07
2023-05-19T16:07:11.954Z,37.58
2023-05-19T16:09:41.440Z,37.44
2023-05-19T16:12:13.501Z,37.55
2023-05-19T16:14:42.965Z,37.11
2023-05-19T16:17:15.250Z,37.11
2023-05-19T16:19:44.735Z,37.65
2023-05-19T16:22:14.377Z,37.73
2023-05-19T16:24:43.873Z,37.36
2023-05-19T16:27:15.894Z,37.66
2023-05-19T16:29:45.379Z,37.86
2023-05-19T16:32:14.930Z,37.75
2023-05-19T16:34:44.394Z,37.99
2023-05-19T16:37:13.954Z,38.09
2023-05-19T16:39:43.922Z,38.00
2023-05-19T16:42:16.033Z,38.68
2023-05-19T16:44:45.501Z,38.77
2023-05-19T16:47:15.729Z,37.47
2023-05-19T16:49:45.458Z,38.80
2023-05-19T16:52:14.972Z,38.55
2023-05-19T16:54:44.448Z,38.04
2023-05-19T16:57:17.039Z,38.77
2023-05-19T16:59:46.364Z,38.67
2023-05-19T17:02:15.885Z,38.50
2023-05-19T17:04:45.374Z,38.70
2023-05-19T17:07:15.997Z,38.81
2023-05-19T17:09:46.059Z,37.95
2023-05-19T17:12:18.157Z,39.11
2023-05-19T17:14:47.660Z,38.72
2023-05-19T17:17:17.207Z,38.38
2023-05-19T17:19:46.966Z,38.64
2023-05-19T17:22:16.431Z,38.10
2023-05-19T17:24:45.966Z,38.75
2023-05-19T17:27:18.041Z,39.44
2023-05-19T17:29:47.819Z,40.10
2023-05-19T17:32:17.392Z,40.15
2023-05-19T17:34:46.927Z,40.21
2023-05-19T17:37:19.214Z,39.56
2023-05-19T17:39:48.703Z,39.09
2023-05-19T17:42:20.792Z,38.72
2023-05-19T17:44:50.318Z,39.50
2023-05-19T17:47:19.800Z,39.14
2023-05-19T17:49:50.273Z,39.73
2023-05-19T17:52:19.936Z,39.52
2023-05-19T17:54:50.641Z,39.06
2023-05-19T17:57:27.231Z,39.08
2023-05-19T17:59:57.407Z,39.87
2023-05-19T18:02:27.463Z,39.85
2023-05-19T18:04:57.586Z,40.10
2023-05-19T18:07:28.311Z,40.56
2023-05-19T18:09:58.836Z,39.35
2023-05-19T18:12:30.868Z,39.59
2023-05-19T18:15:00.558Z,40.13
2023-05-19T18:17:30.114Z,40.20
2023-05-19T18:19:59.621Z,39.85
2023-05-19T18:22:29.126Z,40.49
2023-05-19T18:24:58.995Z,40.34
2023-05-19T18:27:31.556Z,39.78
2023-05-19T18:30:00.873Z,40.14
2023-05-19T18:32:30.369Z,41.46
2023-05-19T18:35:00.038Z,41.17
2023-05-19T18:37:29.875Z,39.33
2023-05-19T18:39:59.453Z,40.49
2023-05-19T18:42:31.457Z,40.75
2023-05-19T18:45:00.920Z,40.74
2023-05-19T18:47:30.376Z,40.76
2023-05-19T18:50:00.266Z,40.88
2023-05-19T18:52:31.410Z,41.42
2023-05-19T18:55:01.371Z,41.56
2023-05-19T18:57:33.513Z,41.01
2023-05-19T19:00:08.164Z,40.62
2023-05-19T19:02:37.656Z,41.01
2023-05-19T19:05:09.629Z,40.75
2023-05-19T19:07:43.351Z,41.09
2023-05-19T19:10:15.342Z,41.37
2023-05-19T19:12:47.487Z,40.86
2023-05-19T19:15:16.969Z,41.26
2023-05-19T19:17:46.454Z,41.14
2023-05-19T19:20:18.797Z,41.63
2023-05-19T19:22:48.247Z,41.47
2023-05-19T19:25:17.788Z,42.18
2023-05-19T19:27:49.820Z,42.56
2023-05-19T19:30:19.321Z,42.08
2023-05-19T19:32:48.897Z,42.35
2023-05-19T19:35:18.651Z,42.43
2023-05-19T19:37:48.130Z,41.62
2023-05-19T19:40:18.232Z,41.55
2023-05-19T19:42:50.311Z,42.49
2023-05-19T19:45:20.992Z,42.32
2023-05-19T19:47:51.962Z,42.89
2023-05-19T19:50:22.081Z,42.44
2023-05-19T19:52:51.835Z,42.50
2023-05-19T19:55:21.312Z,42.10
2023-05-19T19:57:53.349Z,42.80
2023-05-19T20:00:23.289Z,42.44
2023-05-19T20:03:03.656Z,42.05
2023-05-19T20:05:34.426Z,42.45
2023-05-19T20:08:04.547Z,42.55
2023-05-19T20:10:34.304Z,42.43
2023-05-19T20:13:06.535Z,42.58
2023-05-19T20:15:36.050Z,43.37
2023-05-19T20:18:05.552Z,42.58
2023-05-19T20:20:35.404Z,42.65
2023-05-19T20:23:05.127Z,43.17
2023-05-19T20:25:34.885Z,42.89
2023-05-19T20:28:07.689Z,43.09
2023-05-19T20:30:37.300Z,43.27
2023-05-19T20:33:07.277Z,43.39
2023-05-19T20:35:36.812Z,43.45
2023-05-19T20:38:06.327Z,43.95
2023-05-19T20:40:36.088Z,43.48
2023-05-19T20:43:08.174Z,43.93
2023-05-19T20:45:37.943Z,44.36
2023-05-19T20:48:08.788Z,43.98
2023-05-19T20:50:38.403Z,43.71
2023-05-19T20:53:07.951Z,44.00
2023-05-19T20:55:38.073Z,44.33
2023-05-19T20:58:10.137Z,44.27
2023-05-19T21:00:39.685Z,44.55
2023-05-19T21:03:09.233Z,44.53
2023-05-19T21:05:38.921Z,44.71
2023-05-19T21:08:12.927Z,44.72
2023-05-19T21:10:42.516Z,44.62
2023-05-19T21:13:14.941Z,44.96
2023-05-19T21:15:44.458Z,45.13
2023-05-19T21:18:14.352Z,45.18
2023-05-19T21:20:43.890Z,44.73
2023-05-19T21:23:13.472Z,45.03
2023-05-19T21:25:45.106Z,44.99
2023-05-19T21:28:17.590Z,44.89
2023-05-19T21:30:50.354Z,45.50
2023-05-19T21:33:19.949Z,45.34
2023-05-19T21:35:49.432Z,45.90
2023-05-19T21:38:23.812Z,45.53
2023-05-19T21:40:54.042Z,45.49
2023-05-19T21:43:26.130Z,45.93
2023-05-19T21:45:55.627Z,46.12
2023-05-19T21:48:25.183Z,46.54
2023-05-19T21:50:56.279Z,46.34
2023-05-19T21:53:25.774Z,46.12
2023-05-19T21:55:55.323Z,46.44
2023-05-19T21:58:27.503Z,46.59
2023-05-19T22:00:57.252Z,46.46
2023-05-19T22:03:26.903Z,46.64
2023-05-19T22:05:57.816Z,46.97
2023-05-19T22:08:27.322Z,46.81
2023-05-19T22:10:56.834Z,47.00
2023-05-19T22:13:28.908Z,47.08
2023-05-19T22:15:58.464Z,47.39
2023-05-19T22:18:28.025Z,47.82
2023-05-19T22:20:57.513Z,48.02
2023-05-19T22:23:26.980Z,47.63
2023-05-19T22:25:56.461Z,47.55
2023-05-19T22:28:28.498Z,47.87
2023-05-19T22:30:57.984Z,48.01
2023-05-19T22:33:27.483Z,48.09
2023-05-19T22:35:57.077Z,48.08
2023-05-19T22:38:26.538Z,48.29
2023-05-19T22:40:56.131Z,48.41
2023-05-19T22:43:28.212Z,48.81
2023-05-19T22:45:57.676Z,48.89
2023-05-19T22:48:27.415Z,48.70
2023-05-19T22:50:56.949Z,48.76
2023-05-19T22:53:26.519Z,49.15
2023-05-19T22:55:55.989Z,48.98
2023-05-19T22:58:28.384Z,49.18
2023-05-19T23:00:57.877Z,49.33
2023-05-19T23:03:27.373Z,49.16
2023-05-19T23:05:56.838Z,49.75
2023-05-19T23:08:26.448Z,49.32
2023-05-19T23:10:55.902Z,49.29
2023-05-19T23:13:28.130Z,49.31
2023-05-19T23:15:57.594Z,49.39
2023-05-19T23:18:27.100Z,49.30
2023-05-19T23:20:56.615Z,49.57
2023-05-19T23:23:27.582Z,49.93
2023-05-19T23:25:57.627Z,49.62
2023-05-19T23:28:29.678Z,49.94
2023-05-19T23:30:59.429Z,49.92
2023-05-19T23:33:28.979Z,49.72
2023-05-19T23:35:58.463Z,50.02
2023-05-19T23:38:27.947Z,50.14
2023-05-19T23:40:57.457Z,50.12
2023-05-19T23:43:29.592Z,50.06
2023-05-19T23:45:59.066Z,50.24
2023-05-19T23:48:29.674Z,50.29
2023-05-19T23:50:59.820Z,49.97
2023-05-19T23:53:29.381Z,50.70
2023-05-19T23:55:58.894Z,50.60
2023-05-19T23:58:30.961Z,50.35
